PWSweather.com
Personal Weather Stations
Station Observations
SONYA
Sergiev PosadRU

Sergiev PosadRU

Lat: 56.28148651, Lon: 38.05462646

Elevation: 741

Station Type: Fine offset WH1091

Latest ConditionsUpdated 10:48:00 AM GMT+03:03 Thursday, Dec 12, 2019
Currently Today's Max Today's Min Today's Average
Temperature 29.8°F-1.2°C 29.8°F-1.2°C 27.0°F-2.8°C 28.1°F-2.2°C
Dew Point 26.8°F-2.9°C 26.8°F-2.9°C 22.7°F-5.2°C 24.3°F-4.3°C
Winds 3.1 mph NE5.0 kmh NE 4.5 mph -7.2 kmh - - 1.8 mph 2.9 kmh
Wind Gusts 5.4 mph8.7 kmh 7.6 mph12.2 kmh - -
Humidity 84% 84% 76% 80%
Pressure 29.51 in999.3 mb 29.54 in1000.3 mb 29.50 in999.0 mb -
Hour Temp Dew Point Humidity Winds Wind Gusts Pressure Precip Precip Rate Daily Precip Total
10:48 AM 29.8°F-1.2°C 26.8°F-2.9°C 84% 3.1 mph NE5.0 kmh NE 5.4 mph8.7 kmh 29.51 in999.3 mb 0.00 in0.0 mm 0.00 in0.0 mm 0.00 in0.0 mm
10:43 AM 29.7°F-1.3°C 26.7°F-2.9°C 84% 2.2 mph E3.5 kmh E 3.8 mph6.1 kmh 29.51 in999.3 mb 0.00 in0.0 mm 0.00 in0.0 mm 0.00 in0.0 mm
10:39 AM 29.7°F-1.3°C 26.7°F-2.9°C 84% 2.2 mph ENE3.5 kmh ENE 4.5 mph7.2 kmh 29.51 in999.3 mb 0.00 in0.0 mm 0.00 in0.0 mm 0.00 in0.0 mm
10:38 AM 29.7°F-1.3°C 26.7°F-2.9°C 84% 3.1 mph NE5.0 kmh NE 4.5 mph7.2 kmh 29.51 in999.3 mb 0.00 in0.0 mm 0.00 in0.0 mm 0.00 in0.0 mm
10:34 AM 29.7°F-1.3°C 26.7°F-2.9°C 84% 2.2 mph 3.5 kmh 4.5 mph7.2 kmh 29.51 in999.3 mb 0.00 in0.0 mm 0.00 in0.0 mm 0.00 in0.0 mm
10:29 AM 29.7°F-1.3°C 26.7°F-2.9°C 84% 3.1 mph NE5.0 kmh NE 5.4 mph8.7 kmh 29.52 in999.7 mb 0.00 in0.0 mm 0.00 in0.0 mm 0.00 in0.0 mm
10:28 AM 29.7°F-1.3°C 26.7°F-2.9°C 84% 1.6 mph SE2.6 kmh SE 3.1 mph5.0 kmh 29.51 in999.3 mb 0.00 in0.0 mm 0.00 in0.0 mm 0.00 in0.0 mm
10:23 AM 29.7°F-1.3°C 26.7°F-2.9°C 84% 4.5 mph NE7.2 kmh NE 6.9 mph11.1 kmh 29.52 in999.7 mb 0.00 in0.0 mm 0.00 in0.0 mm 0.00 in0.0 mm
10:19 AM 29.5°F-1.4°C 26.5°F-3.1°C 84% 3.8 mph E6.1 kmh E 5.4 mph8.7 kmh 29.52 in999.7 mb 0.00 in0.0 mm 0.00 in0.0 mm 0.00 in0.0 mm
10:18 AM 29.5°F-1.4°C 26.5°F-3.1°C 84% 3.8 mph E6.1 kmh E 6.0 mph9.7 kmh 29.52 in999.7 mb 0.00 in0.0 mm 0.00 in0.0 mm 0.00 in0.0 mm
10:14 AM 29.5°F-1.4°C 26.5°F-3.1°C 84% 3.8 mph 6.1 kmh 6.9 mph11.1 kmh 29.52 in999.7 mb 0.00 in0.0 mm 0.00 in0.0 mm 0.00 in0.0 mm
10:09 AM 29.5°F-1.4°C 26.5°F-3.1°C 84% 2.2 mph NE3.5 kmh NE 4.5 mph7.2 kmh 29.52 in999.7 mb 0.00 in0.0 mm 0.00 in0.0 mm 0.00 in0.0 mm
10:08 AM 29.5°F-1.4°C 26.5°F-3.1°C 84% Calm Calm 1.6 mph2.6 kmh 29.52 in999.7 mb 0.00 in0.0 mm 0.00 in0.0 mm 0.00 in0.0 mm
10:03 AM 29.5°F-1.4°C 26.5°F-3.1°C 84% 1.6 mph NE2.6 kmh NE 3.1 mph5.0 kmh 29.52 in999.7 mb 0.00 in0.0 mm 0.00 in0.0 mm 0.00 in0.0 mm
09:59 AM 29.3°F-1.5°C 26.3°F-3.2°C 84% 2.2 mph ENE3.5 kmh ENE 3.1 mph5.0 kmh 29.52 in999.7 mb 0.00 in0.0 mm 0.00 in0.0 mm 0.00 in0.0 mm
09:58 AM 29.3°F-1.5°C 26.3°F-3.2°C 84% 3.1 mph 5.0 kmh 4.5 mph7.2 kmh 29.52 in999.7 mb 0.00 in0.0 mm 0.00 in0.0 mm 0.00 in0.0 mm
09:54 AM 29.3°F-1.5°C 26.3°F-3.2°C 84% 2.2 mph 3.5 kmh 3.8 mph6.1 kmh 29.52 in999.7 mb 0.00 in0.0 mm 0.00 in0.0 mm 0.00 in0.0 mm
09:49 AM 29.3°F-1.5°C 26.3°F-3.2°C 84% 3.1 mph E5.0 kmh E 4.5 mph7.2 kmh 29.52 in999.7 mb 0.00 in0.0 mm 0.00 in0.0 mm 0.00 in0.0 mm
09:48 AM 29.3°F-1.5°C 26.3°F-3.2°C 84% 2.2 mph NE3.5 kmh NE 4.5 mph7.2 kmh 29.52 in999.7 mb 0.00 in0.0 mm 0.00 in0.0 mm 0.00 in0.0 mm
09:43 AM 29.3°F-1.5°C 26.3°F-3.2°C 84% 1.6 mph E2.6 kmh E 6.0 mph9.7 kmh 29.52 in999.7 mb 0.00 in0.0 mm 0.00 in0.0 mm 0.00 in0.0 mm
09:39 AM 29.1°F-1.6°C 26.1°F-3.3°C 84% 1.6 mph NE2.6 kmh NE 3.1 mph5.0 kmh 29.51 in999.3 mb 0.00 in0.0 mm 0.00 in0.0 mm 0.00 in0.0 mm
09:38 AM 29.1°F-1.6°C 26.1°F-3.3°C 84% 2.2 mph NE3.5 kmh NE 4.5 mph7.2 kmh 29.51 in999.3 mb 0.00 in0.0 mm 0.00 in0.0 mm 0.00 in0.0 mm
09:34 AM 29.1°F-1.6°C 26.1°F-3.3°C 84% 1.6 mph SE2.6 kmh SE 3.1 mph5.0 kmh 29.51 in999.3 mb 0.00 in0.0 mm 0.00 in0.0 mm 0.00 in0.0 mm
09:29 AM 29.1°F-1.6°C 26.1°F-3.3°C 84% 1.6 mph E2.6 kmh E 3.1 mph5.0 kmh 29.51 in999.3 mb 0.00 in0.0 mm 0.00 in0.0 mm 0.00 in0.0 mm
09:28 AM 29.1°F-1.6°C 26.1°F-3.3°C 84% 3.1 mph 5.0 kmh 4.5 mph7.2 kmh 29.51 in999.3 mb 0.00 in0.0 mm 0.00 in0.0 mm 0.00 in0.0 mm
09:23 AM 29.1°F-1.6°C 26.1°F-3.3°C 84% 2.2 mph E3.5 kmh E 3.8 mph6.1 kmh 29.51 in999.3 mb 0.00 in0.0 mm 0.00 in0.0 mm 0.00 in0.0 mm
09:19 AM 29.1°F-1.6°C 25.9°F-3.4°C 83% 2.2 mph SE3.5 kmh SE 4.5 mph7.2 kmh 29.52 in999.7 mb 0.00 in0.0 mm 0.00 in0.0 mm 0.00 in0.0 mm
09:18 AM 29.1°F-1.6°C 25.9°F-3.4°C 83% 2.2 mph NW3.5 kmh NW 3.8 mph6.1 kmh 29.51 in999.3 mb 0.00 in0.0 mm 0.00 in0.0 mm 0.00 in0.0 mm
09:14 AM 29.1°F-1.6°C 25.9°F-3.4°C 83% 2.2 mph 3.5 kmh 4.5 mph7.2 kmh 29.51 in999.3 mb 0.00 in0.0 mm 0.00 in0.0 mm 0.00 in0.0 mm
09:09 AM 29.1°F-1.6°C 25.9°F-3.4°C 83% 2.2 mph SE3.5 kmh SE 3.8 mph6.1 kmh 29.51 in999.3 mb 0.00 in0.0 mm 0.00 in0.0 mm 0.00 in0.0 mm
09:08 AM 29.1°F-1.6°C 25.9°F-3.4°C 83% 0.7 mph SE1.1 kmh SE 2.2 mph3.5 kmh 29.52 in999.7 mb 0.00 in0.0 mm 0.00 in0.0 mm 0.00 in0.0 mm
09:03 AM 29.1°F-1.6°C 25.9°F-3.4°C 83% 1.6 mph S2.6 kmh S 4.5 mph7.2 kmh 29.51 in999.3 mb 0.00 in0.0 mm 0.00 in0.0 mm 0.00 in0.0 mm
08:59 AM 29.1°F-1.6°C 25.9°F-3.4°C 83% 1.6 mph NE2.6 kmh NE 3.8 mph6.1 kmh 29.52 in999.7 mb 0.00 in0.0 mm 0.00 in0.0 mm 0.00 in0.0 mm
08:58 AM 29.1°F-1.6°C 25.9°F-3.4°C 83% 1.6 mph 2.6 kmh 3.8 mph6.1 kmh 29.52 in999.7 mb 0.00 in0.0 mm 0.00 in0.0 mm 0.00 in0.0 mm
08:54 AM 29.1°F-1.6°C 25.9°F-3.4°C 83% 2.2 mph E3.5 kmh E 4.5 mph7.2 kmh 29.52 in999.7 mb 0.00 in0.0 mm 0.00 in0.0 mm 0.00 in0.0 mm
08:49 AM 28.9°F-1.7°C 25.8°F-3.4°C 83% 2.2 mph NE3.5 kmh NE 3.8 mph6.1 kmh 29.52 in999.7 mb 0.00 in0.0 mm 0.00 in0.0 mm 0.00 in0.0 mm
08:48 AM 28.9°F-1.7°C 25.8°F-3.4°C 83% 3.1 mph SE5.0 kmh SE 5.4 mph8.7 kmh 29.52 in999.7 mb 0.00 in0.0 mm 0.00 in0.0 mm 0.00 in0.0 mm
08:43 AM 28.9°F-1.7°C 25.8°F-3.4°C 83% 3.1 mph SE5.0 kmh SE 3.8 mph6.1 kmh 29.52 in999.7 mb 0.00 in0.0 mm 0.00 in0.0 mm 0.00 in0.0 mm
08:39 AM 28.9°F-1.7°C 25.8°F-3.4°C 83% 3.1 mph NNW5.0 kmh NNW 4.5 mph7.2 kmh 29.51 in999.3 mb 0.00 in0.0 mm 0.00 in0.0 mm 0.00 in0.0 mm
08:38 AM 28.9°F-1.7°C 25.8°F-3.4°C 83% 0.7 mph SE1.1 kmh SE 3.8 mph6.1 kmh 29.51 in999.3 mb 0.00 in0.0 mm 0.00 in0.0 mm 0.00 in0.0 mm
08:34 AM 28.9°F-1.7°C 25.8°F-3.4°C 83% 1.6 mph NE2.6 kmh NE 3.8 mph6.1 kmh 29.51 in999.3 mb 0.00 in0.0 mm 0.00 in0.0 mm 0.00 in0.0 mm
08:29 AM 28.8°F-1.8°C 25.6°F-3.6°C 83% 2.2 mph SW3.5 kmh SW 6.0 mph9.7 kmh 29.52 in999.7 mb 0.00 in0.0 mm 0.00 in0.0 mm 0.00 in0.0 mm
08:28 AM 28.8°F-1.8°C 25.6°F-3.6°C 83% 4.5 mph NE7.2 kmh NE 7.6 mph12.2 kmh 29.51 in999.3 mb 0.00 in0.0 mm 0.00 in0.0 mm 0.00 in0.0 mm
08:23 AM 28.8°F-1.8°C 25.6°F-3.6°C 83% 0.7 mph 1.1 kmh 3.1 mph5.0 kmh 29.51 in999.3 mb 0.00 in0.0 mm 0.00 in0.0 mm 0.00 in0.0 mm
08:19 AM 28.8°F-1.8°C 25.6°F-3.6°C 83% 2.2 mph NE3.5 kmh NE 3.8 mph6.1 kmh 29.51 in999.3 mb 0.00 in0.0 mm 0.00 in0.0 mm 0.00 in0.0 mm
08:18 AM 28.8°F-1.8°C 25.6°F-3.6°C 83% 0.7 mph E1.1 kmh E 2.2 mph3.5 kmh 29.51 in999.3 mb 0.00 in0.0 mm 0.00 in0.0 mm 0.00 in0.0 mm
08:14 AM 28.8°F-1.8°C 25.6°F-3.6°C 83% 1.6 mph NE2.6 kmh NE 2.2 mph3.5 kmh 29.51 in999.3 mb 0.00 in0.0 mm 0.00 in0.0 mm 0.00 in0.0 mm
08:09 AM 28.8°F-1.8°C 25.6°F-3.6°C 83% 0.7 mph E1.1 kmh E 1.6 mph2.6 kmh 29.51 in999.3 mb 0.00 in0.0 mm 0.00 in0.0 mm 0.00 in0.0 mm
08:08 AM 28.8°F-1.8°C 25.6°F-3.6°C 83% 2.2 mph NE3.5 kmh NE 4.5 mph7.2 kmh 29.51 in999.3 mb 0.00 in0.0 mm 0.00 in0.0 mm 0.00 in0.0 mm
08:03 AM 28.8°F-1.8°C 25.6°F-3.6°C 83% 0.7 mph 1.1 kmh 1.6 mph2.6 kmh 29.51 in999.3 mb 0.00 in0.0 mm 0.00 in0.0 mm 0.00 in0.0 mm
07:59 AM 28.8°F-1.8°C 25.4°F-3.7°C 82% 0.7 mph NE1.1 kmh NE 3.1 mph5.0 kmh 29.51 in999.3 mb 0.00 in0.0 mm 0.00 in0.0 mm 0.00 in0.0 mm
07:58 AM 28.8°F-1.8°C 25.4°F-3.7°C 82% 2.2 mph E3.5 kmh E 3.8 mph6.1 kmh 29.51 in999.3 mb 0.00 in0.0 mm 0.00 in0.0 mm 0.00 in0.0 mm
07:54 AM 28.8°F-1.8°C 25.4°F-3.7°C 82% 0.7 mph W1.1 kmh W 3.1 mph5.0 kmh 29.51 in999.3 mb 0.00 in0.0 mm 0.00 in0.0 mm 0.00 in0.0 mm
07:49 AM 28.6°F-1.9°C 25.2°F-3.8°C 82% 1.6 mph ENE2.6 kmh ENE 2.2 mph3.5 kmh 29.51 in999.3 mb 0.00 in0.0 mm 0.00 in0.0 mm 0.00 in0.0 mm
07:48 AM 28.6°F-1.9°C 25.2°F-3.8°C 82% 2.2 mph NE3.5 kmh NE 4.5 mph7.2 kmh 29.51 in999.3 mb 0.00 in0.0 mm 0.00 in0.0 mm 0.00 in0.0 mm
07:43 AM 28.6°F-1.9°C 25.2°F-3.8°C 82% 1.6 mph NE2.6 kmh NE 3.8 mph6.1 kmh 29.51 in999.3 mb 0.00 in0.0 mm 0.00 in0.0 mm 0.00 in0.0 mm
07:39 AM 28.6°F-1.9°C 25.2°F-3.8°C 82% 3.1 mph NW5.0 kmh NW 4.5 mph7.2 kmh 29.51 in999.3 mb 0.00 in0.0 mm 0.00 in0.0 mm 0.00 in0.0 mm
07:38 AM 28.6°F-1.9°C 25.2°F-3.8°C 82% 1.6 mph NE2.6 kmh NE 3.1 mph5.0 kmh 29.51 in999.3 mb 0.00 in0.0 mm 0.00 in0.0 mm 0.00 in0.0 mm
07:34 AM 28.6°F-1.9°C 25.2°F-3.8°C 82% 2.2 mph E3.5 kmh E 3.8 mph6.1 kmh 29.51 in999.3 mb 0.00 in0.0 mm 0.00 in0.0 mm 0.00 in0.0 mm
07:29 AM 28.6°F-1.9°C 25.2°F-3.8°C 82% 3.1 mph 5.0 kmh 4.5 mph7.2 kmh 29.51 in999.3 mb 0.00 in0.0 mm 0.00 in0.0 mm 0.00 in0.0 mm
07:28 AM 28.6°F-1.9°C 25.2°F-3.8°C 82% 1.6 mph E2.6 kmh E 3.1 mph5.0 kmh 29.51 in999.3 mb 0.00 in0.0 mm 0.00 in0.0 mm 0.00 in0.0 mm
07:23 AM 28.6°F-1.9°C 25.2°F-3.8°C 82% 3.1 mph SW5.0 kmh SW 5.4 mph8.7 kmh 29.51 in999.3 mb 0.00 in0.0 mm 0.00 in0.0 mm 0.00 in0.0 mm
07:19 AM 28.6°F-1.9°C 25.2°F-3.8°C 82% 0.7 mph E1.1 kmh E 2.2 mph3.5 kmh 29.51 in999.3 mb 0.00 in0.0 mm 0.00 in0.0 mm 0.00 in0.0 mm
07:18 AM 28.6°F-1.9°C 25.2°F-3.8°C 82% 2.2 mph NE3.5 kmh NE 3.8 mph6.1 kmh 29.51 in999.3 mb 0.00 in0.0 mm 0.00 in0.0 mm 0.00 in0.0 mm
07:14 AM 28.6°F-1.9°C 25.2°F-3.8°C 82% 2.2 mph 3.5 kmh 3.8 mph6.1 kmh 29.51 in999.3 mb 0.00 in0.0 mm 0.00 in0.0 mm 0.00 in0.0 mm
07:09 AM 28.6°F-1.9°C 25.2°F-3.8°C 82% Calm Calm 1.6 mph2.6 kmh 29.51 in999.3 mb 0.00 in0.0 mm 0.00 in0.0 mm 0.00 in0.0 mm
07:08 AM 28.6°F-1.9°C 25.2°F-3.8°C 82% 1.6 mph NE2.6 kmh NE 3.1 mph5.0 kmh 29.51 in999.3 mb 0.00 in0.0 mm 0.00 in0.0 mm 0.00 in0.0 mm
07:03 AM 28.4°F-2.0°C 25.0°F-3.9°C 82% 1.6 mph NE2.6 kmh NE 4.5 mph7.2 kmh 29.50 in999.0 mb 0.00 in0.0 mm 0.00 in0.0 mm 0.00 in0.0 mm
06:59 AM 28.4°F-2.0°C 25.0°F-3.9°C 82% 1.6 mph NE2.6 kmh NE 3.1 mph5.0 kmh 29.51 in999.3 mb 0.00 in0.0 mm 0.00 in0.0 mm 0.00 in0.0 mm
06:58 AM 28.4°F-2.0°C 25.0°F-3.9°C 82% 1.6 mph NE2.6 kmh NE 3.8 mph6.1 kmh 29.51 in999.3 mb 0.00 in0.0 mm 0.00 in0.0 mm 0.00 in0.0 mm
06:54 AM 28.4°F-2.0°C 25.0°F-3.9°C 82% 2.2 mph E3.5 kmh E 3.1 mph5.0 kmh 29.51 in999.3 mb 0.00 in0.0 mm 0.00 in0.0 mm 0.00 in0.0 mm
06:49 AM 28.4°F-2.0°C 25.0°F-3.9°C 82% 0.7 mph 1.1 kmh 1.6 mph2.6 kmh 29.51 in999.3 mb 0.00 in0.0 mm 0.00 in0.0 mm 0.00 in0.0 mm
06:48 AM 28.4°F-2.0°C 25.0°F-3.9°C 82% 1.6 mph 2.6 kmh 2.2 mph3.5 kmh 29.51 in999.3 mb 0.00 in0.0 mm 0.00 in0.0 mm 0.00 in0.0 mm
06:43 AM 28.4°F-2.0°C 25.0°F-3.9°C 82% 1.6 mph SE2.6 kmh SE 2.2 mph3.5 kmh 29.51 in999.3 mb 0.00 in0.0 mm 0.00 in0.0 mm 0.00 in0.0 mm
06:39 AM 28.4°F-2.0°C 25.0°F-3.9°C 82% 3.1 mph NE5.0 kmh NE 5.4 mph8.7 kmh 29.51 in999.3 mb 0.00 in0.0 mm 0.00 in0.0 mm 0.00 in0.0 mm
06:38 AM 28.4°F-2.0°C 25.0°F-3.9°C 82% 2.2 mph E3.5 kmh E 3.1 mph5.0 kmh 29.51 in999.3 mb 0.00 in0.0 mm 0.00 in0.0 mm 0.00 in0.0 mm
06:34 AM 28.2°F-2.1°C 24.0°F-4.4°C 78% 1.6 mph SE2.6 kmh SE 3.1 mph5.0 kmh 29.51 in999.3 mb 0.00 in0.0 mm 0.00 in0.0 mm 0.00 in0.0 mm
06:29 AM 28.2°F-2.1°C 24.0°F-4.4°C 78% 2.2 mph E3.5 kmh E 4.5 mph7.2 kmh 29.51 in999.3 mb 0.00 in0.0 mm 0.00 in0.0 mm 0.00 in0.0 mm
06:28 AM 28.2°F-2.1°C 24.0°F-4.4°C 78% 2.2 mph NE3.5 kmh NE 3.1 mph5.0 kmh 29.51 in999.3 mb 0.00 in0.0 mm 0.00 in0.0 mm 0.00 in0.0 mm
06:23 AM 28.2°F-2.1°C 24.0°F-4.4°C 78% 3.8 mph NE6.1 kmh NE 5.4 mph8.7 kmh 29.51 in999.3 mb 0.00 in0.0 mm 0.00 in0.0 mm 0.00 in0.0 mm
06:19 AM 28.2°F-2.1°C 24.0°F-4.4°C 78% Calm Calm 1.6 mph2.6 kmh 29.52 in999.7 mb 0.00 in0.0 mm 0.00 in0.0 mm 0.00 in0.0 mm
06:18 AM 28.2°F-2.1°C 24.0°F-4.4°C 78% 0.7 mph NE1.1 kmh NE 2.2 mph3.5 kmh 29.52 in999.7 mb 0.00 in0.0 mm 0.00 in0.0 mm 0.00 in0.0 mm
06:14 AM 28.2°F-2.1°C 24.0°F-4.4°C 78% 1.6 mph NE2.6 kmh NE 3.1 mph5.0 kmh 29.52 in999.7 mb 0.00 in0.0 mm 0.00 in0.0 mm 0.00 in0.0 mm
06:09 AM 28.2°F-2.1°C 24.0°F-4.4°C 78% 2.2 mph 3.5 kmh 3.1 mph5.0 kmh 29.51 in999.3 mb 0.00 in0.0 mm 0.00 in0.0 mm 0.00 in0.0 mm
06:08 AM 28.2°F-2.1°C 24.0°F-4.4°C 78% 0.7 mph 1.1 kmh 3.1 mph5.0 kmh 29.52 in999.7 mb 0.00 in0.0 mm 0.00 in0.0 mm 0.00 in0.0 mm
06:03 AM 28.2°F-2.1°C 24.0°F-4.4°C 78% 1.6 mph E2.6 kmh E 3.1 mph5.0 kmh 29.51 in999.3 mb 0.00 in0.0 mm 0.00 in0.0 mm 0.00 in0.0 mm
05:59 AM 28.2°F-2.1°C 24.0°F-4.4°C 78% 3.1 mph NE5.0 kmh NE 5.4 mph8.7 kmh 29.52 in999.7 mb 0.00 in0.0 mm 0.00 in0.0 mm 0.00 in0.0 mm
05:58 AM 28.2°F-2.1°C 24.0°F-4.4°C 78% 0.7 mph S1.1 kmh S 2.2 mph3.5 kmh 29.52 in999.7 mb 0.00 in0.0 mm 0.00 in0.0 mm 0.00 in0.0 mm
05:54 AM 28.2°F-2.1°C 24.0°F-4.4°C 78% 2.2 mph NE3.5 kmh NE 3.8 mph6.1 kmh 29.52 in999.7 mb 0.00 in0.0 mm 0.00 in0.0 mm 0.00 in0.0 mm
05:49 AM 28.0°F-2.2°C 23.8°F-4.6°C 78% 2.2 mph 3.5 kmh 3.8 mph6.1 kmh 29.52 in999.7 mb 0.00 in0.0 mm 0.00 in0.0 mm 0.00 in0.0 mm
05:48 AM 28.0°F-2.2°C 23.8°F-4.6°C 78% 0.7 mph E1.1 kmh E 3.1 mph5.0 kmh 29.52 in999.7 mb 0.00 in0.0 mm 0.00 in0.0 mm 0.00 in0.0 mm
05:43 AM 28.0°F-2.2°C 23.8°F-4.6°C 78% 1.6 mph NE2.6 kmh NE 3.8 mph6.1 kmh 29.52 in999.7 mb 0.00 in0.0 mm 0.00 in0.0 mm 0.00 in0.0 mm
05:39 AM 28.0°F-2.2°C 23.8°F-4.6°C 78% 2.2 mph E3.5 kmh E 3.8 mph6.1 kmh 29.52 in999.7 mb 0.00 in0.0 mm 0.00 in0.0 mm 0.00 in0.0 mm
05:38 AM 28.0°F-2.2°C 23.8°F-4.6°C 78% 2.2 mph E3.5 kmh E 3.8 mph6.1 kmh 29.52 in999.7 mb 0.00 in0.0 mm 0.00 in0.0 mm 0.00 in0.0 mm
05:34 AM 28.0°F-2.2°C 23.8°F-4.6°C 78% 3.8 mph NE6.1 kmh NE 6.0 mph9.7 kmh 29.52 in999.7 mb 0.00 in0.0 mm 0.00 in0.0 mm 0.00 in0.0 mm
05:29 AM 28.0°F-2.2°C 23.8°F-4.6°C 78% 0.7 mph NE1.1 kmh NE 2.2 mph3.5 kmh 29.52 in999.7 mb 0.00 in0.0 mm 0.00 in0.0 mm 0.00 in0.0 mm
05:28 AM 28.0°F-2.2°C 23.8°F-4.6°C 78% 1.6 mph 2.6 kmh 3.1 mph5.0 kmh 29.52 in999.7 mb 0.00 in0.0 mm 0.00 in0.0 mm 0.00 in0.0 mm
05:23 AM 28.0°F-2.2°C 23.8°F-4.6°C 78% 3.8 mph E6.1 kmh E 5.4 mph8.7 kmh 29.52 in999.7 mb 0.00 in0.0 mm 0.00 in0.0 mm 0.00 in0.0 mm
05:19 AM 27.9°F-2.3°C 23.7°F-4.6°C 78% 2.2 mph NE3.5 kmh NE 3.1 mph5.0 kmh 29.52 in999.7 mb 0.00 in0.0 mm 0.00 in0.0 mm 0.00 in0.0 mm
05:18 AM 27.9°F-2.3°C 23.7°F-4.6°C 78% 1.6 mph NE2.6 kmh NE 3.1 mph5.0 kmh 29.52 in999.7 mb 0.00 in0.0 mm 0.00 in0.0 mm 0.00 in0.0 mm
05:14 AM 27.9°F-2.3°C 23.7°F-4.6°C 78% 2.2 mph 3.5 kmh 4.5 mph7.2 kmh 29.52 in999.7 mb 0.00 in0.0 mm 0.00 in0.0 mm 0.00 in0.0 mm
05:09 AM 27.9°F-2.3°C 23.7°F-4.6°C 78% 3.8 mph NE6.1 kmh NE 4.5 mph7.2 kmh 29.52 in999.7 mb 0.00 in0.0 mm 0.00 in0.0 mm 0.00 in0.0 mm
05:08 AM 27.9°F-2.3°C 23.7°F-4.6°C 78% 1.6 mph NE2.6 kmh NE 3.8 mph6.1 kmh 29.53 in1000.0 mb 0.00 in0.0 mm 0.00 in0.0 mm 0.00 in0.0 mm
05:03 AM 27.9°F-2.3°C 23.7°F-4.6°C 78% 2.2 mph NE3.5 kmh NE 4.5 mph7.2 kmh 29.52 in999.7 mb 0.00 in0.0 mm 0.00 in0.0 mm 0.00 in0.0 mm
04:59 AM 27.9°F-2.3°C 23.7°F-4.6°C 78% 1.6 mph E2.6 kmh E 3.1 mph5.0 kmh 29.52 in999.7 mb 0.00 in0.0 mm 0.00 in0.0 mm 0.00 in0.0 mm
04:58 AM 27.9°F-2.3°C 23.7°F-4.6°C 78% 2.2 mph NE3.5 kmh NE 3.8 mph6.1 kmh 29.52 in999.7 mb 0.00 in0.0 mm 0.00 in0.0 mm 0.00 in0.0 mm
04:54 AM 27.7°F-2.4°C 23.5°F-4.7°C 78% 0.7 mph 1.1 kmh 3.1 mph5.0 kmh 29.52 in999.7 mb 0.00 in0.0 mm 0.00 in0.0 mm 0.00 in0.0 mm
04:49 AM 27.9°F-2.3°C 23.7°F-4.6°C 78% 0.7 mph NE1.1 kmh NE 1.6 mph2.6 kmh 29.52 in999.7 mb 0.00 in0.0 mm 0.00 in0.0 mm 0.00 in0.0 mm
04:48 AM 27.9°F-2.3°C 23.7°F-4.6°C 78% 0.7 mph NE1.1 kmh NE 2.2 mph3.5 kmh 29.52 in999.7 mb 0.00 in0.0 mm 0.00 in0.0 mm 0.00 in0.0 mm
04:43 AM 27.9°F-2.3°C 23.7°F-4.6°C 78% 2.2 mph 3.5 kmh 3.1 mph5.0 kmh 29.52 in999.7 mb 0.00 in0.0 mm 0.00 in0.0 mm 0.00 in0.0 mm
04:39 AM 27.9°F-2.3°C 23.7°F-4.6°C 78% Calm Calm 1.6 mph2.6 kmh 29.52 in999.7 mb 0.00 in0.0 mm 0.00 in0.0 mm 0.00 in0.0 mm
04:38 AM 27.9°F-2.3°C 23.7°F-4.6°C 78% 1.6 mph E2.6 kmh E 3.1 mph5.0 kmh 29.52 in999.7 mb 0.00 in0.0 mm 0.00 in0.0 mm 0.00 in0.0 mm
04:34 AM 27.9°F-2.3°C 23.7°F-4.6°C 78% 0.7 mph NE1.1 kmh NE 3.1 mph5.0 kmh 29.53 in1000.0 mb 0.00 in0.0 mm 0.00 in0.0 mm 0.00 in0.0 mm
04:29 AM 27.9°F-2.3°C 23.7°F-4.6°C 78% 0.7 mph SW1.1 kmh SW 2.2 mph3.5 kmh 29.52 in999.7 mb 0.00 in0.0 mm 0.00 in0.0 mm 0.00 in0.0 mm
04:28 AM 27.7°F-2.4°C 23.5°F-4.7°C 78% 1.6 mph E2.6 kmh E 3.1 mph5.0 kmh 29.53 in1000.0 mb 0.00 in0.0 mm 0.00 in0.0 mm 0.00 in0.0 mm
04:23 AM 27.7°F-2.4°C 23.5°F-4.7°C 78% 1.6 mph NE2.6 kmh NE 2.2 mph3.5 kmh 29.52 in999.7 mb 0.00 in0.0 mm 0.00 in0.0 mm 0.00 in0.0 mm
04:19 AM 27.7°F-2.4°C 23.3°F-4.8°C 77% 0.7 mph NE1.1 kmh NE 1.6 mph2.6 kmh 29.53 in1000.0 mb 0.00 in0.0 mm 0.00 in0.0 mm 0.00 in0.0 mm
04:18 AM 27.7°F-2.4°C 23.5°F-4.7°C 78% 0.7 mph NE1.1 kmh NE 1.6 mph2.6 kmh 29.52 in999.7 mb 0.00 in0.0 mm 0.00 in0.0 mm 0.00 in0.0 mm
04:14 AM 27.7°F-2.4°C 23.3°F-4.8°C 77% Calm Calm 1.6 mph2.6 kmh 29.53 in1000.0 mb 0.00 in0.0 mm 0.00 in0.0 mm 0.00 in0.0 mm
04:09 AM 27.7°F-2.4°C 23.3°F-4.8°C 77% Calm Calm 1.6 mph2.6 kmh 29.53 in1000.0 mb 0.00 in0.0 mm 0.00 in0.0 mm 0.00 in0.0 mm
04:08 AM 27.7°F-2.4°C 23.3°F-4.8°C 77% 0.7 mph NE1.1 kmh NE 2.2 mph3.5 kmh 29.52 in999.7 mb 0.00 in0.0 mm 0.00 in0.0 mm 0.00 in0.0 mm
04:03 AM 27.7°F-2.4°C 23.3°F-4.8°C 77% 2.2 mph NE3.5 kmh NE 3.8 mph6.1 kmh 29.52 in999.7 mb 0.00 in0.0 mm 0.00 in0.0 mm 0.00 in0.0 mm
03:59 AM 27.7°F-2.4°C 23.3°F-4.8°C 77% 0.7 mph NE1.1 kmh NE 2.2 mph3.5 kmh 29.52 in999.7 mb 0.00 in0.0 mm 0.00 in0.0 mm 0.00 in0.0 mm
03:58 AM 27.7°F-2.4°C 23.3°F-4.8°C 77% 0.7 mph NE1.1 kmh NE 1.6 mph2.6 kmh 29.52 in999.7 mb 0.00 in0.0 mm 0.00 in0.0 mm 0.00 in0.0 mm
03:54 AM 27.7°F-2.4°C 23.3°F-4.8°C 77% 1.6 mph NE2.6 kmh NE 3.8 mph6.1 kmh 29.52 in999.7 mb 0.00 in0.0 mm 0.00 in0.0 mm 0.00 in0.0 mm
03:49 AM 27.7°F-2.4°C 23.3°F-4.8°C 77% 1.6 mph 2.6 kmh 2.2 mph3.5 kmh 29.52 in999.7 mb 0.00 in0.0 mm 0.00 in0.0 mm 0.00 in0.0 mm
03:48 AM 27.7°F-2.4°C 23.3°F-4.8°C 77% 3.1 mph NE5.0 kmh NE 3.8 mph6.1 kmh 29.52 in999.7 mb 0.00 in0.0 mm 0.00 in0.0 mm 0.00 in0.0 mm
03:43 AM 27.7°F-2.4°C 23.3°F-4.8°C 77% 1.6 mph NE2.6 kmh NE 2.2 mph3.5 kmh 29.52 in999.7 mb 0.00 in0.0 mm 0.00 in0.0 mm 0.00 in0.0 mm
03:39 AM 27.7°F-2.4°C 23.3°F-4.8°C 77% 0.7 mph E1.1 kmh E 1.6 mph2.6 kmh 29.53 in1000.0 mb 0.00 in0.0 mm 0.00 in0.0 mm 0.00 in0.0 mm
03:38 AM 27.7°F-2.4°C 23.3°F-4.8°C 77% 1.6 mph NE2.6 kmh NE 2.2 mph3.5 kmh 29.53 in1000.0 mb 0.00 in0.0 mm 0.00 in0.0 mm 0.00 in0.0 mm
03:34 AM 27.7°F-2.4°C 23.3°F-4.8°C 77% 2.2 mph 3.5 kmh 3.1 mph5.0 kmh 29.52 in999.7 mb 0.00 in0.0 mm 0.00 in0.0 mm 0.00 in0.0 mm
03:29 AM 27.7°F-2.4°C 23.3°F-4.8°C 77% 0.7 mph SE1.1 kmh SE 1.6 mph2.6 kmh 29.53 in1000.0 mb 0.00 in0.0 mm 0.00 in0.0 mm 0.00 in0.0 mm
03:28 AM 27.7°F-2.4°C 23.3°F-4.8°C 77% 1.6 mph NE2.6 kmh NE 3.1 mph5.0 kmh 29.52 in999.7 mb 0.00 in0.0 mm 0.00 in0.0 mm 0.00 in0.0 mm
03:23 AM 27.7°F-2.4°C 23.3°F-4.8°C 77% 2.2 mph NE3.5 kmh NE 3.1 mph5.0 kmh 29.53 in1000.0 mb 0.00 in0.0 mm 0.00 in0.0 mm 0.00 in0.0 mm
03:19 AM 27.5°F-2.5°C 23.1°F-4.9°C 77% 2.2 mph NE3.5 kmh NE 3.8 mph6.1 kmh 29.53 in1000.0 mb 0.00 in0.0 mm 0.00 in0.0 mm 0.00 in0.0 mm
03:18 AM 27.7°F-2.4°C 23.3°F-4.8°C 77% 4.5 mph 7.2 kmh 5.4 mph8.7 kmh 29.53 in1000.0 mb 0.00 in0.0 mm 0.00 in0.0 mm 0.00 in0.0 mm
03:14 AM 27.5°F-2.5°C 23.1°F-4.9°C 77% 2.2 mph NE3.5 kmh NE 3.8 mph6.1 kmh 29.53 in1000.0 mb 0.00 in0.0 mm 0.00 in0.0 mm 0.00 in0.0 mm
03:09 AM 27.5°F-2.5°C 23.1°F-4.9°C 77% 3.1 mph 5.0 kmh 4.5 mph7.2 kmh 29.53 in1000.0 mb 0.00 in0.0 mm 0.00 in0.0 mm 0.00 in0.0 mm
03:08 AM 27.5°F-2.5°C 23.1°F-4.9°C 77% 1.6 mph NE2.6 kmh NE 3.1 mph5.0 kmh 29.53 in1000.0 mb 0.00 in0.0 mm 0.00 in0.0 mm 0.00 in0.0 mm
03:03 AM 27.5°F-2.5°C 23.1°F-4.9°C 77% 3.1 mph WSW5.0 kmh WSW 6.0 mph9.7 kmh 29.53 in1000.0 mb 0.00 in0.0 mm 0.00 in0.0 mm 0.00 in0.0 mm
02:59 AM 27.5°F-2.5°C 23.1°F-4.9°C 77% 2.2 mph E3.5 kmh E 3.8 mph6.1 kmh 29.54 in1000.3 mb 0.00 in0.0 mm 0.00 in0.0 mm 0.00 in0.0 mm
02:58 AM 27.5°F-2.5°C 23.1°F-4.9°C 77% 0.7 mph SE1.1 kmh SE 2.2 mph3.5 kmh 29.54 in1000.3 mb 0.00 in0.0 mm 0.00 in0.0 mm 0.00 in0.0 mm
02:54 AM 27.5°F-2.5°C 23.1°F-4.9°C 77% 1.6 mph E2.6 kmh E 2.2 mph3.5 kmh 29.54 in1000.3 mb 0.00 in0.0 mm 0.00 in0.0 mm 0.00 in0.0 mm
02:49 AM 27.5°F-2.5°C 23.1°F-4.9°C 77% 0.7 mph NE1.1 kmh NE 1.6 mph2.6 kmh 29.54 in1000.3 mb 0.00 in0.0 mm 0.00 in0.0 mm 0.00 in0.0 mm
02:48 AM 27.5°F-2.5°C 23.1°F-4.9°C 77% 0.7 mph NE1.1 kmh NE 2.2 mph3.5 kmh 29.54 in1000.3 mb 0.00 in0.0 mm 0.00 in0.0 mm 0.00 in0.0 mm
02:43 AM 27.5°F-2.5°C 23.1°F-4.9°C 77% Calm Calm 0.7 mph1.1 kmh 29.54 in1000.3 mb 0.00 in0.0 mm 0.00 in0.0 mm 0.00 in0.0 mm
02:39 AM 27.5°F-2.5°C 23.1°F-4.9°C 77% 0.7 mph NE1.1 kmh NE 2.2 mph3.5 kmh 29.54 in1000.3 mb 0.00 in0.0 mm 0.00 in0.0 mm 0.00 in0.0 mm
02:38 AM 27.5°F-2.5°C 23.1°F-4.9°C 77% 2.2 mph 3.5 kmh 3.1 mph5.0 kmh 29.54 in1000.3 mb 0.00 in0.0 mm 0.00 in0.0 mm 0.00 in0.0 mm
02:34 AM 27.5°F-2.5°C 23.1°F-4.9°C 77% 1.6 mph 2.6 kmh 2.2 mph3.5 kmh 29.54 in1000.3 mb 0.00 in0.0 mm 0.00 in0.0 mm 0.00 in0.0 mm
02:29 AM 27.5°F-2.5°C 23.1°F-4.9°C 77% 0.7 mph NE1.1 kmh NE 2.2 mph3.5 kmh 29.54 in1000.3 mb 0.00 in0.0 mm 0.00 in0.0 mm 0.00 in0.0 mm
02:28 AM 27.5°F-2.5°C 23.1°F-4.9°C 77% 0.7 mph E1.1 kmh E 3.1 mph5.0 kmh 29.54 in1000.3 mb 0.00 in0.0 mm 0.00 in0.0 mm 0.00 in0.0 mm
02:23 AM 27.5°F-2.5°C 23.1°F-4.9°C 77% 2.2 mph NE3.5 kmh NE 3.8 mph6.1 kmh 29.54 in1000.3 mb 0.00 in0.0 mm 0.00 in0.0 mm 0.00 in0.0 mm
02:19 AM 27.3°F-2.6°C 22.7°F-5.2°C 76% 3.1 mph NE5.0 kmh NE 4.5 mph7.2 kmh 29.54 in1000.3 mb 0.00 in0.0 mm 0.00 in0.0 mm 0.00 in0.0 mm
02:18 AM 27.5°F-2.5°C 23.1°F-4.9°C 77% 1.6 mph NE2.6 kmh NE 3.8 mph6.1 kmh 29.54 in1000.3 mb 0.00 in0.0 mm 0.00 in0.0 mm 0.00 in0.0 mm
02:14 AM 27.3°F-2.6°C 22.7°F-5.2°C 76% 3.1 mph NE5.0 kmh NE 3.8 mph6.1 kmh 29.54 in1000.3 mb 0.00 in0.0 mm 0.00 in0.0 mm 0.00 in0.0 mm
02:09 AM 27.3°F-2.6°C 22.7°F-5.2°C 76% 2.2 mph NE3.5 kmh NE 3.8 mph6.1 kmh 29.54 in1000.3 mb 0.00 in0.0 mm 0.00 in0.0 mm 0.00 in0.0 mm
02:08 AM 27.3°F-2.6°C 22.7°F-5.2°C 76% 3.1 mph NE5.0 kmh NE 4.5 mph7.2 kmh 29.54 in1000.3 mb 0.00 in0.0 mm 0.00 in0.0 mm 0.00 in0.0 mm
02:03 AM 27.3°F-2.6°C 22.7°F-5.2°C 76% 3.1 mph NNW5.0 kmh NNW 4.5 mph7.2 kmh 29.54 in1000.3 mb 0.00 in0.0 mm 0.00 in0.0 mm 0.00 in0.0 mm
01:59 AM 27.3°F-2.6°C 22.7°F-5.2°C 76% 2.2 mph WNW3.5 kmh WNW 3.1 mph5.0 kmh 29.54 in1000.3 mb 0.00 in0.0 mm 0.00 in0.0 mm 0.00 in0.0 mm
01:58 AM 27.3°F-2.6°C 22.7°F-5.2°C 76% 0.7 mph NE1.1 kmh NE 2.2 mph3.5 kmh 29.54 in1000.3 mb 0.00 in0.0 mm 0.00 in0.0 mm 0.00 in0.0 mm
01:54 AM 27.3°F-2.6°C 22.7°F-5.2°C 76% 2.2 mph NE3.5 kmh NE 3.1 mph5.0 kmh 29.54 in1000.3 mb 0.00 in0.0 mm 0.00 in0.0 mm 0.00 in0.0 mm
01:49 AM 27.3°F-2.6°C 22.7°F-5.2°C 76% 0.7 mph E1.1 kmh E 3.8 mph6.1 kmh 29.54 in1000.3 mb 0.00 in0.0 mm 0.00 in0.0 mm 0.00 in0.0 mm
01:48 AM 27.3°F-2.6°C 22.7°F-5.2°C 76% 2.2 mph 3.5 kmh 3.8 mph6.1 kmh 29.54 in1000.3 mb 0.00 in0.0 mm 0.00 in0.0 mm 0.00 in0.0 mm
01:43 AM 27.3°F-2.6°C 22.7°F-5.2°C 76% 2.2 mph 3.5 kmh 3.8 mph6.1 kmh 29.54 in1000.3 mb 0.00 in0.0 mm 0.00 in0.0 mm 0.00 in0.0 mm
01:39 AM 27.3°F-2.6°C 22.9°F-5.1°C 77% 1.6 mph NE2.6 kmh NE 3.8 mph6.1 kmh 29.54 in1000.3 mb 0.00 in0.0 mm 0.00 in0.0 mm 0.00 in0.0 mm
01:38 AM 27.3°F-2.6°C 22.9°F-5.1°C 77% 0.7 mph NE1.1 kmh NE 1.6 mph2.6 kmh 29.54 in1000.3 mb 0.00 in0.0 mm 0.00 in0.0 mm 0.00 in0.0 mm
01:34 AM 27.3°F-2.6°C 22.9°F-5.1°C 77% 3.1 mph NE5.0 kmh NE 4.5 mph7.2 kmh 29.54 in1000.3 mb 0.00 in0.0 mm 0.00 in0.0 mm 0.00 in0.0 mm
01:29 AM 27.3°F-2.6°C 22.9°F-5.1°C 77% 0.7 mph NE1.1 kmh NE 1.6 mph2.6 kmh 29.54 in1000.3 mb 0.00 in0.0 mm 0.00 in0.0 mm 0.00 in0.0 mm
01:28 AM 27.3°F-2.6°C 22.9°F-5.1°C 77% 0.7 mph NE1.1 kmh NE 2.2 mph3.5 kmh 29.54 in1000.3 mb 0.00 in0.0 mm 0.00 in0.0 mm 0.00 in0.0 mm
01:23 AM 27.3°F-2.6°C 22.9°F-5.1°C 77% 1.6 mph NE2.6 kmh NE 3.1 mph5.0 kmh 29.54 in1000.3 mb 0.00 in0.0 mm 0.00 in0.0 mm 0.00 in0.0 mm
01:19 AM 27.3°F-2.6°C 22.9°F-5.1°C 77% 1.6 mph NE2.6 kmh NE 3.1 mph5.0 kmh 29.54 in1000.3 mb 0.00 in0.0 mm 0.00 in0.0 mm 0.00 in0.0 mm
01:18 AM 27.3°F-2.6°C 22.9°F-5.1°C 77% 3.1 mph NE5.0 kmh NE 4.5 mph7.2 kmh 29.54 in1000.3 mb 0.00 in0.0 mm 0.00 in0.0 mm 0.00 in0.0 mm
01:14 AM 27.3°F-2.6°C 22.9°F-5.1°C 77% 3.1 mph NE5.0 kmh NE 5.4 mph8.7 kmh 29.54 in1000.3 mb 0.00 in0.0 mm 0.00 in0.0 mm 0.00 in0.0 mm
01:09 AM 27.1°F-2.7°C 22.7°F-5.2°C 77% 1.6 mph SE2.6 kmh SE 3.8 mph6.1 kmh 29.54 in1000.3 mb 0.00 in0.0 mm 0.00 in0.0 mm 0.00 in0.0 mm
01:08 AM 27.3°F-2.6°C 23.1°F-4.9°C 78% 1.6 mph NE2.6 kmh NE 3.1 mph5.0 kmh 29.54 in1000.3 mb 0.00 in0.0 mm 0.00 in0.0 mm 0.00 in0.0 mm
01:03 AM 27.3°F-2.6°C 23.1°F-4.9°C 78% 2.2 mph E3.5 kmh E 4.5 mph7.2 kmh 29.54 in1000.3 mb 0.00 in0.0 mm 0.00 in0.0 mm 0.00 in0.0 mm
12:59 AM 27.3°F-2.6°C 23.1°F-4.9°C 78% 2.2 mph 3.5 kmh 3.8 mph6.1 kmh 29.54 in1000.3 mb 0.00 in0.0 mm 0.00 in0.0 mm 0.00 in0.0 mm
12:58 AM 27.3°F-2.6°C 23.1°F-4.9°C 78% 3.1 mph NE5.0 kmh NE 4.5 mph7.2 kmh 29.54 in1000.3 mb 0.00 in0.0 mm 0.00 in0.0 mm 0.00 in0.0 mm
12:54 AM 27.1°F-2.7°C 23.0°F-5.0°C 78% 2.2 mph SE3.5 kmh SE 3.8 mph6.1 kmh 29.54 in1000.3 mb 0.00 in0.0 mm 0.00 in0.0 mm 0.00 in0.0 mm
12:49 AM 27.1°F-2.7°C 23.0°F-5.0°C 78% 0.7 mph 1.1 kmh 1.6 mph2.6 kmh 29.54 in1000.3 mb 0.00 in0.0 mm 0.00 in0.0 mm 0.00 in0.0 mm
12:48 AM 27.1°F-2.7°C 23.0°F-5.0°C 78% 0.7 mph SE1.1 kmh SE 3.8 mph6.1 kmh 29.54 in1000.3 mb 0.00 in0.0 mm 0.00 in0.0 mm 0.00 in0.0 mm
12:43 AM 27.1°F-2.7°C 23.0°F-5.0°C 78% 3.1 mph 5.0 kmh 5.4 mph8.7 kmh 29.54 in1000.3 mb 0.00 in0.0 mm 0.00 in0.0 mm 0.00 in0.0 mm
12:39 AM 27.1°F-2.7°C 23.2°F-4.9°C 79% 2.2 mph NE3.5 kmh NE 3.8 mph6.1 kmh 29.54 in1000.3 mb 0.00 in0.0 mm 0.00 in0.0 mm 0.00 in0.0 mm
12:38 AM 27.1°F-2.7°C 23.2°F-4.9°C 79% 2.2 mph 3.5 kmh 4.5 mph7.2 kmh 29.54 in1000.3 mb 0.00 in0.0 mm 0.00 in0.0 mm 0.00 in0.0 mm
12:34 AM 27.1°F-2.7°C 23.2°F-4.9°C 79% 2.2 mph NE3.5 kmh NE 3.8 mph6.1 kmh 29.53 in1000.0 mb 0.00 in0.0 mm 0.00 in0.0 mm 0.00 in0.0 mm
12:29 AM 27.1°F-2.7°C 23.2°F-4.9°C 79% 2.2 mph NE3.5 kmh NE 4.5 mph7.2 kmh 29.54 in1000.3 mb 0.00 in0.0 mm 0.00 in0.0 mm 0.00 in0.0 mm
12:28 AM 27.1°F-2.7°C 23.2°F-4.9°C 79% 2.2 mph 3.5 kmh 3.8 mph6.1 kmh 29.54 in1000.3 mb 0.00 in0.0 mm 0.00 in0.0 mm 0.00 in0.0 mm
12:23 AM 27.1°F-2.7°C 23.2°F-4.9°C 79% 0.7 mph NE1.1 kmh NE 3.1 mph5.0 kmh 29.54 in1000.3 mb 0.00 in0.0 mm 0.00 in0.0 mm 0.00 in0.0 mm
12:19 AM 27.0°F-2.8°C 23.0°F-5.0°C 79% 0.7 mph NE1.1 kmh NE 1.6 mph2.6 kmh 29.53 in1000.0 mb 0.00 in0.0 mm 0.00 in0.0 mm 0.00 in0.0 mm
12:18 AM 27.1°F-2.7°C 23.2°F-4.9°C 79% 0.7 mph 1.1 kmh 2.2 mph3.5 kmh 29.54 in1000.3 mb 0.00 in0.0 mm 0.00 in0.0 mm 0.00 in0.0 mm
12:14 AM 27.0°F-2.8°C 23.0°F-5.0°C 79% 1.6 mph NE2.6 kmh NE 2.2 mph3.5 kmh 29.54 in1000.3 mb 0.00 in0.0 mm 0.00 in0.0 mm 0.00 in0.0 mm
12:09 AM 27.0°F-2.8°C 23.0°F-5.0°C 79% Calm Calm -- 29.54 in1000.3 mb 0.00 in0.0 mm 0.00 in0.0 mm 0.00 in0.0 mm
12:08 AM 27.0°F-2.8°C 23.2°F-4.9°C 80% Calm Calm 0.7 mph1.1 kmh 29.53 in1000.0 mb 0.00 in0.0 mm 0.00 in0.0 mm 0.00 in0.0 mm
12:03 AM 27.0°F-2.8°C 23.2°F-4.9°C 80% 0.7 mph E1.1 kmh E 2.2 mph3.5 kmh 29.54 in1000.3 mb 0.00 in0.0 mm 0.00 in0.0 mm 0.00 in0.0 mm